Campbell AAF (Fort Campbell) Air Field Fort Campbell, Hopkinsville US
ICAO: KHOP
IATA: HOP
Category: Medium
Scheduled Services: No

Elevation: 573 ft
TransAlt. 18000 ft.

Airport Communications:
APP:118.1
ATIS:125.175
CLNC DEL:138.8
DEP:118.1
GND:121.8
PMSV METRO:34.33
EAGLE CON:65.2
PTD:130.65
TWR:120.9

KHOP Zoom In..

Runways:

(A) RW 05 length 11822 ft width 200 ft
---- / hdg 45

(B) RW 18 length 4001 ft width 155 ft
---- / hdg 180

(C) RW 23 length 11822 ft width 200 ft
ILS 111.90 / hdg 225

(D) RW 36 length 4001 ft width 155 ft
---- / hdg 360

Location; KHOP
Day. 16 / Time. 18.17 Zulu
* Altimeter: 29.99
* Temperature: 31° c. 87.8°f.
* Wind from: 220° Speed 04 kn.
Dewpoint: 24° c.
Visibility: 10 Statute Miles.
Clouds: Scattered 3000 ft.
Clouds: Scattered 16000 ft.
Clouds: Scattered 19000 ft.

KHOP 161817Z COR 22004KT 10SM SCT030 SCT160 SCT190 31/24 A2999 RMK AO2 SLP151 COR 1819


Wind From 220°
Speed 04 kn.

 
 
jpsmedia.com for Web Design worldairports.se 2018   terms of use